Terminal Aerodrome Forecast
Issued by NWS Binghamton, NY

Home | Current Version | Previous Version | Text Only | Print | Product List | Glossary On
Versions: 1 2 3 4 5 6 7 8 9 10 11 12 13
083
FTUS41 KBGM 010531
TAFAVP
TAF
KAVP 010531Z 0106/0206 VRB03KT P6SM BKN035 WS020/21035KT
      TEMPO 0106/0110 BKN015
     FM011500 22009KT P6SM BKN025
     FM011800 21009KT P6SM BKN035
     FM012300 18013KT 3SM -TSRA BR OVC025CB
      TEMPO 0200/0202 2SM TSRA BR
     FM020300 18014G24KT 5SM -SHRA OVC020=

USA.gov is the U.S. government's official web portal to all federal, state and local government web resources and services.